sensor_id;sensor_type;location;lat;lon;timestamp;P1;durP1;ratioP1;P2;durP2;ratioP2
25191;SDS011;13143;50.924;5.320;2024-03-02T00:02:15;1.00;;;0.40;;
25191;SDS011;13143;50.924;5.320;2024-03-02T00:04:44;0.95;;;0.50;;
25191;SDS011;13143;50.924;5.320;2024-03-02T00:07:11;1.95;;;0.43;;
25191;SDS011;13143;50.924;5.320;2024-03-02T00:09:41;2.72;;;0.40;;
25191;SDS011;13143;50.924;5.320;2024-03-02T00:12:10;1.27;;;0.50;;
25191;SDS011;13143;50.924;5.320;2024-03-02T00:14:41;0.40;;;0.40;;
25191;SDS011;13143;50.924;5.320;2024-03-02T00:17:09;0.25;;;0.20;;
25191;SDS011;13143;50.924;5.320;2024-03-02T00:19:50;1.27;;;0.65;;
25191;SDS011;13143;50.924;5.320;2024-03-02T00:22:17;1.63;;;0.50;;
25191;SDS011;13143;50.924;5.320;2024-03-02T00:24:45;1.65;;;0.80;;
25191;SDS011;13143;50.924;5.320;2024-03-02T00:27:12;1.58;;;0.57;;
25191;SDS011;13143;50.924;5.320;2024-03-02T00:29:41;1.85;;;0.70;;
25191;SDS011;13143;50.924;5.320;2024-03-02T00:32:12;2.17;;;0.40;;
25191;SDS011;13143;50.924;5.320;2024-03-02T00:34:41;3.23;;;0.57;;
25191;SDS011;13143;50.924;5.320;2024-03-02T00:37:08;0.50;;;0.35;;
25191;SDS011;13143;50.924;5.320;2024-03-02T00:39:38;2.45;;;0.65;;
25191;SDS011;13143;50.924;5.320;2024-03-02T00:42:05;1.23;;;0.60;;
25191;SDS011;13143;50.924;5.320;2024-03-02T00:44:32;0.40;;;0.40;;
25191;SDS011;13143;50.924;5.320;2024-03-02T00:47:02;0.60;;;0.40;;
25191;SDS011;13143;50.924;5.320;2024-03-02T00:49:29;0.30;;;0.30;;
25191;SDS011;13143;50.924;5.320;2024-03-02T00:51:56;1.63;;;0.50;;
25191;SDS011;13143;50.924;5.320;2024-03-02T00:54:25;0.55;;;0.40;;
25191;SDS011;13143;50.924;5.320;2024-03-02T00:56:53;2.60;;;0.50;;
25191;SDS011;13143;50.924;5.320;2024-03-02T00:59:25;0.82;;;0.30;;
25191;SDS011;13143;50.924;5.320;2024-03-02T01:01:52;0.50;;;0.30;;
25191;SDS011;13143;50.924;5.320;2024-03-02T01:04:19;0.57;;;0.20;;
25191;SDS011;13143;50.924;5.320;2024-03-02T01:06:46;1.23;;;0.40;;
25191;SDS011;13143;50.924;5.320;2024-03-02T01:09:14;0.40;;;0.30;;
25191;SDS011;13143;50.924;5.320;2024-03-02T01:11:41;1.17;;;0.50;;
25191;SDS011;13143;50.924;5.320;2024-03-02T01:14:08;2.08;;;0.40;;
25191;SDS011;13143;50.924;5.320;2024-03-02T01:16:35;1.08;;;0.52;;
25191;SDS011;13143;50.924;5.320;2024-03-02T01:19:02;1.67;;;0.50;;
25191;SDS011;13143;50.924;5.320;2024-03-02T01:21:29;1.73;;;0.60;;
25191;SDS011;13143;50.924;5.320;2024-03-02T01:23:56;0.70;;;0.43;;
25191;SDS011;13143;50.924;5.320;2024-03-02T01:26:23;3.45;;;0.73;;
25191;SDS011;13143;50.924;5.320;2024-03-02T01:28:49;3.20;;;0.50;;
25191;SDS011;13143;50.924;5.320;2024-03-02T01:31:16;4.07;;;0.63;;
25191;SDS011;13143;50.924;5.320;2024-03-02T01:33:43;4.90;;;0.63;;
25191;SDS011;13143;50.924;5.320;2024-03-02T01:36:10;2.58;;;0.60;;
25191;SDS011;13143;50.924;5.320;2024-03-02T01:38:37;1.95;;;0.40;;
25191;SDS011;13143;50.924;5.320;2024-03-02T01:41:04;3.75;;;0.60;;
25191;SDS011;13143;50.924;5.320;2024-03-02T01:43:31;1.08;;;0.40;;
25191;SDS011;13143;50.924;5.320;2024-03-02T01:45:58;1.60;;;0.52;;
25191;SDS011;13143;50.924;5.320;2024-03-02T01:48:25;3.78;;;0.60;;
25191;SDS011;13143;50.924;5.320;2024-03-02T01:50:52;1.38;;;0.30;;
25191;SDS011;13143;50.924;5.320;2024-03-02T01:53:19;1.13;;;0.60;;
25191;SDS011;13143;50.924;5.320;2024-03-02T01:55:46;0.80;;;0.38;;
25191;SDS011;13143;50.924;5.320;2024-03-02T01:58:13;1.98;;;0.30;;
25191;SDS011;13143;50.924;5.320;2024-03-02T02:00:40;1.40;;;0.50;;
25191;SDS011;13143;50.924;5.320;2024-03-02T02:03:07;3.58;;;0.45;;
25191;SDS011;13143;50.924;5.320;2024-03-02T02:05:34;0.98;;;0.32;;
25191;SDS011;13143;50.924;5.320;2024-03-02T02:08:02;1.67;;;0.57;;
25191;SDS011;13143;50.924;5.320;2024-03-02T02:10:29;0.40;;;0.32;;
25191;SDS011;13143;50.924;5.320;2024-03-02T02:12:56;1.27;;;0.70;;
25191;SDS011;13143;50.924;5.320;2024-03-02T02:15:23;2.03;;;0.47;;
25191;SDS011;13143;50.924;5.320;2024-03-02T02:17:54;1.90;;;0.70;;
25191;SDS011;13143;50.924;5.320;2024-03-02T02:20:23;0.57;;;0.43;;
25191;SDS011;13143;50.924;5.320;2024-03-02T02:25:25;0.57;;;0.40;;
25191;SDS011;13143;50.924;5.320;2024-03-02T02:27:52;3.40;;;0.70;;
25191;SDS011;13143;50.924;5.320;2024-03-02T02:30:24;2.67;;;0.70;;
25191;SDS011;13143;50.924;5.320;2024-03-02T02:32:52;2.58;;;1.27;;
25191;SDS011;13143;50.924;5.320;2024-03-02T02:35:19;0.75;;;0.47;;
25191;SDS011;13143;50.924;5.320;2024-03-02T02:37:47;0.73;;;0.40;;
25191;SDS011;13143;50.924;5.320;2024-03-02T02:40:15;1.20;;;0.40;;
25191;SDS011;13143;50.924;5.320;2024-03-02T02:42:42;1.40;;;0.60;;
25191;SDS011;13143;50.924;5.320;2024-03-02T02:45:09;4.03;;;0.57;;
25191;SDS011;13143;50.924;5.320;2024-03-02T02:47:39;2.67;;;0.55;;
25191;SDS011;13143;50.924;5.320;2024-03-02T02:50:07;2.63;;;0.30;;
25191;SDS011;13143;50.924;5.320;2024-03-02T02:52:35;1.20;;;0.50;;
25191;SDS011;13143;50.924;5.320;2024-03-02T02:55:15;1.42;;;0.20;;
25191;SDS011;13143;50.924;5.320;2024-03-02T02:57:42;0.57;;;0.30;;
25191;SDS011;13143;50.924;5.320;2024-03-02T03:00:11;0.63;;;0.30;;
25191;SDS011;13143;50.924;5.320;2024-03-02T03:05:12;0.70;;;0.32;;
25191;SDS011;13143;50.924;5.320;2024-03-02T03:07:41;1.30;;;0.35;;
25191;SDS011;13143;50.924;5.320;2024-03-02T03:10:08;3.22;;;0.30;;
25191;SDS011;13143;50.924;5.320;2024-03-02T03:12:35;1.15;;;0.43;;
25191;SDS011;13143;50.924;5.320;2024-03-02T03:15:03;1.20;;;0.30;;
25191;SDS011;13143;50.924;5.320;2024-03-02T03:17:35;5.22;;;0.40;;
25191;SDS011;13143;50.924;5.320;2024-03-02T03:20:03;1.15;;;0.20;;
25191;SDS011;13143;50.924;5.320;2024-03-02T03:22:32;1.02;;;0.30;;
25191;SDS011;13143;50.924;5.320;2024-03-02T03:24:59;0.47;;;0.20;;
25191;SDS011;13143;50.924;5.320;2024-03-02T03:27:26;2.28;;;0.30;;
25191;SDS011;13143;50.924;5.320;2024-03-02T03:29:54;1.58;;;0.43;;
25191;SDS011;13143;50.924;5.320;2024-03-02T03:32:21;1.98;;;0.40;;
25191;SDS011;13143;50.924;5.320;2024-03-02T03:34:48;1.88;;;0.30;;
25191;SDS011;13143;50.924;5.320;2024-03-02T03:37:15;0.57;;;0.30;;
25191;SDS011;13143;50.924;5.320;2024-03-02T03:39:42;2.00;;;0.45;;
25191;SDS011;13143;50.924;5.320;2024-03-02T03:42:09;2.28;;;0.60;;
25191;SDS011;13143;50.924;5.320;2024-03-02T03:44:36;1.10;;;0.40;;
25191;SDS011;13143;50.924;5.320;2024-03-02T03:47:03;1.33;;;0.40;;
25191;SDS011;13143;50.924;5.320;2024-03-02T03:49:30;2.22;;;0.60;;
25191;SDS011;13143;50.924;5.320;2024-03-02T03:51:57;1.33;;;0.38;;
25191;SDS011;13143;50.924;5.320;2024-03-02T03:54:24;1.27;;;0.25;;
25191;SDS011;13143;50.924;5.320;2024-03-02T03:56:51;5.53;;;0.60;;
25191;SDS011;13143;50.924;5.320;2024-03-02T03:59:18;1.15;;;0.30;;
25191;SDS011;13143;50.924;5.320;2024-03-02T04:01:45;0.55;;;0.30;;
25191;SDS011;13143;50.924;5.320;2024-03-02T04:04:13;1.42;;;0.30;;
25191;SDS011;13143;50.924;5.320;2024-03-02T04:06:40;2.40;;;1.20;;
25191;SDS011;13143;50.924;5.320;2024-03-02T04:09:07;0.63;;;0.30;;
25191;SDS011;13143;50.924;5.320;2024-03-02T04:11:34;0.65;;;0.30;;
25191;SDS011;13143;50.924;5.320;2024-03-02T04:14:01;1.25;;;0.40;;
25191;SDS011;13143;50.924;5.320;2024-03-02T04:16:28;2.72;;;0.40;;
25191;SDS011;13143;50.924;5.320;2024-03-02T04:18:55;2.03;;;0.50;;
25191;SDS011;13143;50.924;5.320;2024-03-02T04:21:22;1.85;;;0.50;;
25191;SDS011;13143;50.924;5.320;2024-03-02T04:23:49;2.45;;;0.52;;
25191;SDS011;13143;50.924;5.320;2024-03-02T04:26:15;1.13;;;0.40;;
25191;SDS011;13143;50.924;5.320;2024-03-02T04:28:48;1.25;;;0.40;;
25191;SDS011;13143;50.924;5.320;2024-03-02T04:31:15;1.77;;;0.40;;
25191;SDS011;13143;50.924;5.320;2024-03-02T04:33:43;2.55;;;0.40;;
25191;SDS011;13143;50.924;5.320;2024-03-02T04:36:10;0.40;;;0.30;;
25191;SDS011;13143;50.924;5.320;2024-03-02T04:38:37;3.90;;;0.45;;
25191;SDS011;13143;50.924;5.320;2024-03-02T04:41:05;3.63;;;0.40;;
25191;SDS011;13143;50.924;5.320;2024-03-02T04:43:32;2.88;;;0.60;;
25191;SDS011;13143;50.924;5.320;2024-03-02T04:46:00;2.00;;;0.40;;
25191;SDS011;13143;50.924;5.320;2024-03-02T04:48:28;3.17;;;0.47;;
25191;SDS011;13143;50.924;5.320;2024-03-02T04:50:55;3.38;;;0.40;;
25191;SDS011;13143;50.924;5.320;2024-03-02T04:53:22;2.50;;;0.43;;
25191;SDS011;13143;50.924;5.320;2024-03-02T04:55:49;2.92;;;0.50;;
25191;SDS011;13143;50.924;5.320;2024-03-02T04:58:22;1.95;;;0.75;;
25191;SDS011;13143;50.924;5.320;2024-03-02T05:00:49;4.85;;;0.40;;
25191;SDS011;13143;50.924;5.320;2024-03-02T05:03:16;1.90;;;0.65;;
25191;SDS011;13143;50.924;5.320;2024-03-02T05:05:43;1.52;;;0.50;;
25191;SDS011;13143;50.924;5.320;2024-03-02T05:08:10;2.10;;;0.50;;
25191;SDS011;13143;50.924;5.320;2024-03-02T05:10:38;2.85;;;0.73;;
25191;SDS011;13143;50.924;5.320;2024-03-02T05:13:05;1.63;;;0.60;;
25191;SDS011;13143;50.924;5.320;2024-03-02T05:15:32;1.95;;;0.47;;
25191;SDS011;13143;50.924;5.320;2024-03-02T05:17:59;2.60;;;0.30;;
25191;SDS011;13143;50.924;5.320;2024-03-02T05:20:28;4.30;;;0.68;;
25191;SDS011;13143;50.924;5.320;2024-03-02T05:22:55;3.80;;;0.88;;
25191;SDS011;13143;50.924;5.320;2024-03-02T05:25:22;1.88;;;0.60;;
25191;SDS011;13143;50.924;5.320;2024-03-02T05:27:49;3.22;;;0.57;;
25191;SDS011;13143;50.924;5.320;2024-03-02T05:30:16;1.65;;;0.50;;
25191;SDS011;13143;50.924;5.320;2024-03-02T05:32:43;2.00;;;0.70;;
25191;SDS011;13143;50.924;5.320;2024-03-02T05:35:10;3.92;;;0.65;;
25191;SDS011;13143;50.924;5.320;2024-03-02T05:37:39;2.38;;;0.68;;
25191;SDS011;13143;50.924;5.320;2024-03-02T05:40:06;3.95;;;1.05;;
25191;SDS011;13143;50.924;5.320;2024-03-02T05:42:34;2.85;;;0.45;;
25191;SDS011;13143;50.924;5.320;2024-03-02T05:45:01;2.97;;;0.45;;
25191;SDS011;13143;50.924;5.320;2024-03-02T05:47:28;3.28;;;0.70;;
25191;SDS011;13143;50.924;5.320;2024-03-02T05:49:55;3.42;;;0.95;;
25191;SDS011;13143;50.924;5.320;2024-03-02T05:52:22;3.05;;;0.70;;
25191;SDS011;13143;50.924;5.320;2024-03-02T05:54:49;1.95;;;0.60;;
25191;SDS011;13143;50.924;5.320;2024-03-02T05:57:16;1.88;;;0.80;;
25191;SDS011;13143;50.924;5.320;2024-03-02T05:59:48;5.25;;;0.95;;
25191;SDS011;13143;50.924;5.320;2024-03-02T06:02:15;5.55;;;0.90;;
25191;SDS011;13143;50.924;5.320;2024-03-02T06:04:42;2.55;;;0.60;;
25191;SDS011;13143;50.924;5.320;2024-03-02T06:07:09;3.50;;;0.88;;
25191;SDS011;13143;50.924;5.320;2024-03-02T06:09:36;6.28;;;0.68;;
25191;SDS011;13143;50.924;5.320;2024-03-02T06:12:04;4.95;;;1.00;;
25191;SDS011;13143;50.924;5.320;2024-03-02T06:14:31;4.35;;;1.00;;
25191;SDS011;13143;50.924;5.320;2024-03-02T06:16:58;5.28;;;1.10;;
25191;SDS011;13143;50.924;5.320;2024-03-02T06:19:25;3.03;;;0.85;;
25191;SDS011;13143;50.924;5.320;2024-03-02T06:21:54;5.25;;;0.95;;
25191;SDS011;13143;50.924;5.320;2024-03-02T06:24:21;2.88;;;0.80;;
25191;SDS011;13143;50.924;5.320;2024-03-02T06:26:48;4.35;;;1.23;;
25191;SDS011;13143;50.924;5.320;2024-03-02T06:29:15;2.45;;;0.82;;
25191;SDS011;13143;50.924;5.320;2024-03-02T06:31:42;5.10;;;0.90;;
25191;SDS011;13143;50.924;5.320;2024-03-02T06:34:09;3.42;;;1.02;;
25191;SDS011;13143;50.924;5.320;2024-03-02T06:36:36;6.10;;;0.90;;
25191;SDS011;13143;50.924;5.320;2024-03-02T06:39:03;3.15;;;0.80;;
25191;SDS011;13143;50.924;5.320;2024-03-02T06:41:30;2.00;;;0.70;;
25191;SDS011;13143;50.924;5.320;2024-03-02T06:43:57;1.75;;;0.90;;
25191;SDS011;13143;50.924;5.320;2024-03-02T06:46:27;5.40;;;0.90;;
25191;SDS011;13143;50.924;5.320;2024-03-02T06:48:53;3.63;;;0.75;;
25191;SDS011;13143;50.924;5.320;2024-03-02T06:51:21;4.95;;;1.25;;
25191;SDS011;13143;50.924;5.320;2024-03-02T06:53:48;5.35;;;1.13;;
25191;SDS011;13143;50.924;5.320;2024-03-02T06:56:15;2.30;;;0.80;;
25191;SDS011;13143;50.924;5.320;2024-03-02T06:58:42;7.88;;;1.10;;
25191;SDS011;13143;50.924;5.320;2024-03-02T07:01:09;4.47;;;0.88;;
25191;SDS011;13143;50.924;5.320;2024-03-02T07:03:36;2.03;;;0.88;;
25191;SDS011;13143;50.924;5.320;2024-03-02T07:06:05;7.75;;;1.30;;
25191;SDS011;13143;50.924;5.320;2024-03-02T07:08:33;6.22;;;1.10;;
25191;SDS011;13143;50.924;5.320;2024-03-02T07:11:00;7.13;;;1.42;;
25191;SDS011;13143;50.924;5.320;2024-03-02T07:13:27;6.22;;;1.17;;
25191;SDS011;13143;50.924;5.320;2024-03-02T07:15:54;5.07;;;1.00;;
25191;SDS011;13143;50.924;5.320;2024-03-02T07:18:30;6.20;;;1.92;;
25191;SDS011;13143;50.924;5.320;2024-03-02T07:20:57;12.05;;;1.17;;
25191;SDS011;13143;50.924;5.320;2024-03-02T07:23:27;7.55;;;1.08;;
25191;SDS011;13143;50.924;5.320;2024-03-02T07:25:54;5.13;;;1.00;;
25191;SDS011;13143;50.924;5.320;2024-03-02T07:28:25;6.60;;;1.23;;
25191;SDS011;13143;50.924;5.320;2024-03-02T07:31:02;3.75;;;1.10;;
25191;SDS011;13143;50.924;5.320;2024-03-02T07:33:31;5.10;;;1.38;;
25191;SDS011;13143;50.924;5.320;2024-03-02T07:35:59;7.85;;;1.58;;
25191;SDS011;13143;50.924;5.320;2024-03-02T07:38:30;4.75;;;1.15;;
25191;SDS011;13143;50.924;5.320;2024-03-02T07:40:58;4.90;;;1.13;;
25191;SDS011;13143;50.924;5.320;2024-03-02T07:43:25;7.82;;;1.55;;
25191;SDS011;13143;50.924;5.320;2024-03-02T07:45:52;5.38;;;1.20;;
25191;SDS011;13143;50.924;5.320;2024-03-02T07:48:19;3.83;;;1.40;;
25191;SDS011;13143;50.924;5.320;2024-03-02T07:50:46;9.77;;;1.48;;
25191;SDS011;13143;50.924;5.320;2024-03-02T07:53:13;6.15;;;1.33;;
25191;SDS011;13143;50.924;5.320;2024-03-02T07:55:41;9.30;;;1.40;;
25191;SDS011;13143;50.924;5.320;2024-03-02T07:58:08;4.82;;;1.30;;
25191;SDS011;13143;50.924;5.320;2024-03-02T08:00:35;7.50;;;1.27;;
25191;SDS011;13143;50.924;5.320;2024-03-02T08:03:02;4.18;;;1.00;;
25191;SDS011;13143;50.924;5.320;2024-03-02T08:05:30;5.25;;;1.05;;
25191;SDS011;13143;50.924;5.320;2024-03-02T08:07:57;6.70;;;1.15;;
25191;SDS011;13143;50.924;5.320;2024-03-02T08:10:24;6.65;;;1.20;;
25191;SDS011;13143;50.924;5.320;2024-03-02T08:12:51;7.15;;;1.67;;
25191;SDS011;13143;50.924;5.320;2024-03-02T08:15:18;3.30;;;0.88;;
25191;SDS011;13143;50.924;5.320;2024-03-02T08:17:45;8.85;;;0.95;;
25191;SDS011;13143;50.924;5.320;2024-03-02T08:20:15;2.97;;;1.00;;
25191;SDS011;13143;50.924;5.320;2024-03-02T08:22:42;7.40;;;1.00;;
25191;SDS011;13143;50.924;5.320;2024-03-02T08:25:09;7.38;;;1.40;;
25191;SDS011;13143;50.924;5.320;2024-03-02T08:27:37;4.35;;;1.10;;
25191;SDS011;13143;50.924;5.320;2024-03-02T08:30:06;7.22;;;0.90;;
25191;SDS011;13143;50.924;5.320;2024-03-02T08:32:34;8.77;;;1.65;;
25191;SDS011;13143;50.924;5.320;2024-03-02T08:35:01;3.50;;;1.00;;
25191;SDS011;13143;50.924;5.320;2024-03-02T08:37:29;8.77;;;1.30;;
25191;SDS011;13143;50.924;5.320;2024-03-02T08:39:56;6.45;;;1.20;;
25191;SDS011;13143;50.924;5.320;2024-03-02T08:42:23;4.90;;;1.13;;
25191;SDS011;13143;50.924;5.320;2024-03-02T08:44:50;4.88;;;1.30;;
25191;SDS011;13143;50.924;5.320;2024-03-02T08:47:18;8.18;;;1.15;;
25191;SDS011;13143;50.924;5.320;2024-03-02T08:49:45;6.53;;;1.40;;
25191;SDS011;13143;50.924;5.320;2024-03-02T08:52:12;4.85;;;1.55;;
25191;SDS011;13143;50.924;5.320;2024-03-02T08:54:39;7.88;;;1.23;;
25191;SDS011;13143;50.924;5.320;2024-03-02T08:57:06;7.60;;;1.15;;
25191;SDS011;13143;50.924;5.320;2024-03-02T08:59:33;6.47;;;1.20;;
25191;SDS011;13143;50.924;5.320;2024-03-02T09:02:00;6.93;;;1.20;;
25191;SDS011;13143;50.924;5.320;2024-03-02T09:04:27;4.28;;;1.23;;
25191;SDS011;13143;50.924;5.320;2024-03-02T09:07:00;6.60;;;1.23;;
25191;SDS011;13143;50.924;5.320;2024-03-02T09:09:27;13.98;;;1.30;;
25191;SDS011;13143;50.924;5.320;2024-03-02T09:11:55;5.53;;;1.30;;
25191;SDS011;13143;50.924;5.320;2024-03-02T09:14:24;4.85;;;1.05;;
25191;SDS011;13143;50.924;5.320;2024-03-02T09:16:51;7.50;;;1.92;;
25191;SDS011;13143;50.924;5.320;2024-03-02T09:19:18;7.45;;;1.45;;
25191;SDS011;13143;50.924;5.320;2024-03-02T09:21:45;6.07;;;1.23;;
25191;SDS011;13143;50.924;5.320;2024-03-02T09:24:12;8.82;;;1.42;;
25191;SDS011;13143;50.924;5.320;2024-03-02T09:26:43;11.02;;;1.13;;
25191;SDS011;13143;50.924;5.320;2024-03-02T09:29:10;6.88;;;1.30;;
25191;SDS011;13143;50.924;5.320;2024-03-02T09:31:40;8.95;;;2.63;;
25191;SDS011;13143;50.924;5.320;2024-03-02T09:34:08;10.18;;;1.52;;
25191;SDS011;13143;50.924;5.320;2024-03-02T09:36:35;10.45;;;1.40;;
25191;SDS011;13143;50.924;5.320;2024-03-02T09:39:02;4.32;;;1.77;;
25191;SDS011;13143;50.924;5.320;2024-03-02T09:41:30;6.72;;;1.15;;
25191;SDS011;13143;50.924;5.320;2024-03-02T09:43:59;8.13;;;1.92;;
25191;SDS011;13143;50.924;5.320;2024-03-02T09:46:27;10.80;;;1.50;;
25191;SDS011;13143;50.924;5.320;2024-03-02T09:48:54;12.32;;;1.83;;
25191;SDS011;13143;50.924;5.320;2024-03-02T09:51:21;8.75;;;1.75;;
25191;SDS011;13143;50.924;5.320;2024-03-02T09:53:48;11.50;;;1.20;;
25191;SDS011;13143;50.924;5.320;2024-03-02T09:56:16;10.07;;;1.50;;
25191;SDS011;13143;50.924;5.320;2024-03-02T09:58:44;11.80;;;1.27;;
25191;SDS011;13143;50.924;5.320;2024-03-02T10:01:11;8.50;;;1.30;;
25191;SDS011;13143;50.924;5.320;2024-03-02T10:03:39;5.55;;;1.33;;
25191;SDS011;13143;50.924;5.320;2024-03-02T10:06:24;13.95;;;1.60;;
25191;SDS011;13143;50.924;5.320;2024-03-02T10:08:52;5.55;;;1.00;;
25191;SDS011;13143;50.924;5.320;2024-03-02T10:11:31;12.38;;;1.45;;
25191;SDS011;13143;50.924;5.320;2024-03-02T10:14:07;9.95;;;1.40;;
25191;SDS011;13143;50.924;5.320;2024-03-02T10:16:41;6.80;;;1.27;;
25191;SDS011;13143;50.924;5.320;2024-03-02T10:19:21;9.13;;;2.05;;
25191;SDS011;13143;50.924;5.320;2024-03-02T10:21:50;4.70;;;1.35;;
25191;SDS011;13143;50.924;5.320;2024-03-02T10:24:18;8.43;;;1.35;;
25191;SDS011;13143;50.924;5.320;2024-03-02T10:26:46;7.53;;;1.60;;
25191;SDS011;13143;50.924;5.320;2024-03-02T10:29:13;4.07;;;0.90;;
25191;SDS011;13143;50.924;5.320;2024-03-02T10:31:44;4.38;;;1.10;;
25191;SDS011;13143;50.924;5.320;2024-03-02T10:34:15;6.90;;;1.10;;
25191;SDS011;13143;50.924;5.320;2024-03-02T10:36:44;6.93;;;1.38;;
25191;SDS011;13143;50.924;5.320;2024-03-02T10:39:12;4.28;;;1.35;;
25191;SDS011;13143;50.924;5.320;2024-03-02T10:41:40;4.85;;;1.15;;
25191;SDS011;13143;50.924;5.320;2024-03-02T10:44:08;11.10;;;1.38;;
25191;SDS011;13143;50.924;5.320;2024-03-02T10:46:36;8.57;;;1.13;;
25191;SDS011;13143;50.924;5.320;2024-03-02T10:49:04;8.82;;;1.45;;
25191;SDS011;13143;50.924;5.320;2024-03-02T10:51:34;5.88;;;1.25;;
25191;SDS011;13143;50.924;5.320;2024-03-02T10:54:03;7.45;;;1.75;;
25191;SDS011;13143;50.924;5.320;2024-03-02T10:56:32;4.25;;;1.00;;
25191;SDS011;13143;50.924;5.320;2024-03-02T10:59:13;9.23;;;1.17;;
25191;SDS011;13143;50.924;5.320;2024-03-02T11:01:44;6.88;;;1.10;;
25191;SDS011;13143;50.924;5.320;2024-03-02T11:04:17;7.85;;;1.40;;
25191;SDS011;13143;50.924;5.320;2024-03-02T11:06:47;4.75;;;1.40;;
25191;SDS011;13143;50.924;5.320;2024-03-02T11:09:16;4.30;;;1.08;;
25191;SDS011;13143;50.924;5.320;2024-03-02T11:11:48;13.85;;;1.90;;
25191;SDS011;13143;50.924;5.320;2024-03-02T11:14:21;7.72;;;1.40;;
25191;SDS011;13143;50.924;5.320;2024-03-02T11:16:52;10.55;;;1.40;;
25191;SDS011;13143;50.924;5.320;2024-03-02T11:19:20;7.78;;;1.30;;
25191;SDS011;13143;50.924;5.320;2024-03-02T11:21:47;6.80;;;1.30;;
25191;SDS011;13143;50.924;5.320;2024-03-02T11:26:48;3.85;;;1.23;;
25191;SDS011;13143;50.924;5.320;2024-03-02T11:32:03;6.95;;;1.23;;
25191;SDS011;13143;50.924;5.320;2024-03-02T11:34:31;9.15;;;1.90;;
25191;SDS011;13143;50.924;5.320;2024-03-02T11:37:03;3.88;;;1.30;;
25191;SDS011;13143;50.924;5.320;2024-03-02T11:39:30;8.82;;;1.35;;
25191;SDS011;13143;50.924;5.320;2024-03-02T11:41:57;9.52;;;1.33;;
25191;SDS011;13143;50.924;5.320;2024-03-02T11:44:26;10.52;;;1.55;;
25191;SDS011;13143;50.924;5.320;2024-03-02T11:47:00;5.60;;;1.52;;
25191;SDS011;13143;50.924;5.320;2024-03-02T11:49:38;10.75;;;1.65;;
25191;SDS011;13143;50.924;5.320;2024-03-02T11:52:08;9.88;;;1.58;;
25191;SDS011;13143;50.924;5.320;2024-03-02T11:54:37;7.15;;;1.40;;
25191;SDS011;13143;50.924;5.320;2024-03-02T11:57:06;10.55;;;1.75;;
25191;SDS011;13143;50.924;5.320;2024-03-02T11:59:33;5.30;;;1.20;;
25191;SDS011;13143;50.924;5.320;2024-03-02T12:02:01;7.15;;;1.52;;
25191;SDS011;13143;50.924;5.320;2024-03-02T12:04:29;9.77;;;1.48;;
25191;SDS011;13143;50.924;5.320;2024-03-02T12:07:00;6.95;;;1.30;;
25191;SDS011;13143;50.924;5.320;2024-03-02T12:09:28;6.15;;;1.30;;
25191;SDS011;13143;50.924;5.320;2024-03-02T12:16:57;11.57;;;1.60;;
25191;SDS011;13143;50.924;5.320;2024-03-02T12:19:28;8.30;;;1.77;;
25191;SDS011;13143;50.924;5.320;2024-03-02T12:21:57;8.02;;;1.45;;
25191;SDS011;13143;50.924;5.320;2024-03-02T12:24:26;6.15;;;1.52;;
25191;SDS011;13143;50.924;5.320;2024-03-02T12:26:54;9.10;;;1.58;;
25191;SDS011;13143;50.924;5.320;2024-03-02T12:29:21;8.05;;;1.55;;
25191;SDS011;13143;50.924;5.320;2024-03-02T12:31:49;7.88;;;1.25;;
25191;SDS011;13143;50.924;5.320;2024-03-02T12:34:17;5.85;;;1.70;;
25191;SDS011;13143;50.924;5.320;2024-03-02T12:36:45;4.22;;;1.23;;
25191;SDS011;13143;50.924;5.320;2024-03-02T12:39:18;3.33;;;1.10;;
25191;SDS011;13143;50.924;5.320;2024-03-02T12:41:46;6.97;;;1.45;;
25191;SDS011;13143;50.924;5.320;2024-03-02T12:44:13;7.75;;;1.40;;
25191;SDS011;13143;50.924;5.320;2024-03-02T12:46:40;6.75;;;1.25;;
25191;SDS011;13143;50.924;5.320;2024-03-02T12:49:08;4.18;;;1.20;;
25191;SDS011;13143;50.924;5.320;2024-03-02T12:51:40;9.38;;;1.60;;
25191;SDS011;13143;50.924;5.320;2024-03-02T12:54:08;4.90;;;1.17;;
25191;SDS011;13143;50.924;5.320;2024-03-02T12:56:37;5.50;;;1.40;;
25191;SDS011;13143;50.924;5.320;2024-03-02T12:59:04;4.38;;;1.20;;
25191;SDS011;13143;50.924;5.320;2024-03-02T13:01:31;5.30;;;1.50;;
25191;SDS011;13143;50.924;5.320;2024-03-02T13:03:58;2.63;;;1.10;;
25191;SDS011;13143;50.924;5.320;2024-03-02T13:06:25;5.28;;;1.30;;
25191;SDS011;13143;50.924;5.320;2024-03-02T13:08:56;9.55;;;1.40;;
25191;SDS011;13143;50.924;5.320;2024-03-02T13:11:23;9.32;;;1.45;;
25191;SDS011;13143;50.924;5.320;2024-03-02T13:13:51;7.25;;;1.23;;
25191;SDS011;13143;50.924;5.320;2024-03-02T13:16:18;3.28;;;1.00;;
25191;SDS011;13143;50.924;5.320;2024-03-02T13:18:55;3.38;;;1.30;;
25191;SDS011;13143;50.924;5.320;2024-03-02T13:21:22;5.15;;;1.33;;
25191;SDS011;13143;50.924;5.320;2024-03-02T13:23:49;6.95;;;1.30;;
25191;SDS011;13143;50.924;5.320;2024-03-02T13:26:16;12.15;;;1.48;;
25191;SDS011;13143;50.924;5.320;2024-03-02T13:28:43;4.43;;;1.65;;
25191;SDS011;13143;50.924;5.320;2024-03-02T13:31:10;5.32;;;1.30;;
25191;SDS011;13143;50.924;5.320;2024-03-02T13:33:38;6.45;;;1.15;;
25191;SDS011;13143;50.924;5.320;2024-03-02T13:36:05;4.85;;;1.00;;
25191;SDS011;13143;50.924;5.320;2024-03-02T13:38:33;3.55;;;0.90;;
25191;SDS011;13143;50.924;5.320;2024-03-02T13:41:00;6.07;;;1.40;;
25191;SDS011;13143;50.924;5.320;2024-03-02T13:43:27;5.72;;;1.40;;
25191;SDS011;13143;50.924;5.320;2024-03-02T13:45:58;3.25;;;1.15;;
25191;SDS011;13143;50.924;5.320;2024-03-02T13:48:25;4.35;;;1.17;;
25191;SDS011;13143;50.924;5.320;2024-03-02T13:50:52;6.30;;;1.75;;
25191;SDS011;13143;50.924;5.320;2024-03-02T13:53:20;2.00;;;0.98;;
25191;SDS011;13143;50.924;5.320;2024-03-02T13:55:47;5.47;;;1.73;;
25191;SDS011;13143;50.924;5.320;2024-03-02T13:58:14;4.05;;;1.02;;
25191;SDS011;13143;50.924;5.320;2024-03-02T14:00:41;3.38;;;1.15;;
25191;SDS011;13143;50.924;5.320;2024-03-02T14:03:08;3.92;;;1.08;;
25191;SDS011;13143;50.924;5.320;2024-03-02T14:05:35;4.57;;;1.48;;
25191;SDS011;13143;50.924;5.320;2024-03-02T14:08:03;4.05;;;1.30;;
25191;SDS011;13143;50.924;5.320;2024-03-02T14:10:30;2.20;;;1.30;;
25191;SDS011;13143;50.924;5.320;2024-03-02T14:12:57;3.00;;;1.27;;
25191;SDS011;13143;50.924;5.320;2024-03-02T14:15:24;3.78;;;1.13;;
25191;SDS011;13143;50.924;5.320;2024-03-02T14:17:51;1.95;;;1.17;;
25191;SDS011;13143;50.924;5.320;2024-03-02T14:20:18;3.67;;;0.93;;
25191;SDS011;13143;50.924;5.320;2024-03-02T14:22:49;4.10;;;1.33;;
25191;SDS011;13143;50.924;5.320;2024-03-02T14:25:16;5.00;;;1.30;;
25191;SDS011;13143;50.924;5.320;2024-03-02T14:27:43;5.43;;;1.10;;
25191;SDS011;13143;50.924;5.320;2024-03-02T14:30:15;3.50;;;2.00;;
25191;SDS011;13143;50.924;5.320;2024-03-02T14:32:42;1.77;;;0.90;;
25191;SDS011;13143;50.924;5.320;2024-03-02T14:35:09;2.90;;;1.20;;
25191;SDS011;13143;50.924;5.320;2024-03-02T14:37:37;2.90;;;1.20;;
25191;SDS011;13143;50.924;5.320;2024-03-02T14:40:04;3.38;;;1.00;;
25191;SDS011;13143;50.924;5.320;2024-03-02T14:42:32;4.90;;;1.63;;
25191;SDS011;13143;50.924;5.320;2024-03-02T14:45:00;4.18;;;1.10;;
25191;SDS011;13143;50.924;5.320;2024-03-02T14:47:29;3.45;;;1.17;;
25191;SDS011;13143;50.924;5.320;2024-03-02T14:49:58;5.00;;;1.23;;
25191;SDS011;13143;50.924;5.320;2024-03-02T14:52:25;3.20;;;1.00;;
25191;SDS011;13143;50.924;5.320;2024-03-02T14:54:52;4.35;;;1.30;;
25191;SDS011;13143;50.924;5.320;2024-03-02T14:57:18;2.38;;;1.20;;
25191;SDS011;13143;50.924;5.320;2024-03-02T14:59:45;3.75;;;1.10;;
25191;SDS011;13143;50.924;5.320;2024-03-02T15:02:12;3.60;;;1.13;;
25191;SDS011;13143;50.924;5.320;2024-03-02T15:04:39;2.53;;;1.00;;
25191;SDS011;13143;50.924;5.320;2024-03-02T15:07:06;5.63;;;1.15;;
25191;SDS011;13143;50.924;5.320;2024-03-02T15:09:33;1.70;;;1.10;;